This is the latest recevied weather packets stored in our database for station/object DO7CRZ-12. If no packets are shown the sender has not sent any weather packets the latest 10 day(s).
| Time | Temp. | Humidity | Pressure | Rain* | Wind** | Luminosity | Snow |
|---|---|---|---|---|---|---|---|
| 1777460841 | 22.22° C | 14% | 1027.9 hPa | 0 mm | - | 669 W/m² | - |
| 1777460238 | 22.22° C | 14% | 1027.9 hPa | 0 mm | - | 676 W/m² | - |
| 1777459635 | 21.67° C | 14% | 1028 hPa | 0 mm | - | 677 W/m² | - |
| 1777458444 | 22.22° C | 14% | 1028 hPa | 0 mm | - | 691 W/m² | - |
| 1777457842 | 22.22° C | 14% | 1028 hPa | 0 mm | - | 690 W/m² | - |
| 1777457239 | 21.11° C | 15% | 1028.1 hPa | 0 mm | - | 676 W/m² | - |
| 1777456636 | 21.11° C | 16% | 1028.2 hPa | 0 mm | - | 643 W/m² | - |
| 1777456048 | 20.56° C | 16% | 1028.2 hPa | 0 mm | - | 622 W/m² | - |
| 1777454843 | 20° C | 16% | 1028.2 hPa | 0 mm | - | 544 W/m² | - |
| 1777454240 | 18.89° C | 17% | 1028.2 hPa | 0 mm | - | 533 W/m² | - |
| 1777453637 | 18.33° C | 18% | 1028.3 hPa | 0 mm | - | 523 W/m² | - |
| 1777453049 | 18.89° C | 18% | 1028.3 hPa | 0 mm | - | 511 W/m² | - |
| 1777452447 | 18.33° C | 18% | 1028.4 hPa | 0 mm | - | 495 W/m² | - |
| 1777451844 | 18.33° C | 19% | 1028.3 hPa | 0 mm | - | 480 W/m² | - |
| 1777451251 | 16.67° C | 22% | 1028.3 hPa | 0 mm | - | 457 W/m² | - |
| 1777450638 | 15.56° C | 23% | 1028.2 hPa | 0 mm | - | 420 W/m² | - |
| 1777450035 | 13.33° C | 27% | 1028.1 hPa | 0 mm | - | 368 W/m² | - |
| 1777449448 | 10° C | 34% | 1028.1 hPa | 0 mm | - | 178 W/m² | - |
| 1777448844 | 7.78° C | 35% | 1028.1 hPa | 0 mm | - | 28 W/m² | - |
| 1777447639 | 7.22° C | 41% | 1028.1 hPa | 0 mm | - | 25 W/m² | - |
| 1777447036 | 6.67° C | 43% | 1027.8 hPa | 0 mm | - | 25 W/m² | - |
| 1777446448 | 6.67° C | 42% | 1027.8 hPa | 0 mm | - | 23 W/m² | - |
| 1777445242 | 6.11° C | 45% | 1027.6 hPa | 0 mm | - | 21 W/m² | - |
| 1777444639 | 6.11° C | 48% | 1027.4 hPa | 0 mm | - | 20 W/m² | - |
| 1777444036 | 5.56° C | 51% | 1027.4 hPa | 0 mm | - | 19 W/m² | - |
* Rain latest hour (hover to see other rain measurements)
** Current wind speed in m/s (hover to see current wind gust speed)